Observation data for Andrews on 11/17/2019      Previous  Date       Current Mesonet Observations  Soil Data  Daily Summary Page  Observations in Plain Language
KANS 170600Z 21008G13KT 08/04 A2998 RMK A01 T00810037  RH  075%=      5-min Rain = 0
KANS 170605Z 21007KT 08/04 A2998 RMK A01 T00790037  RH  076%=      5-min Rain = 0
KANS 170610Z 22008KT 08/04 A2998 RMK A01 T00780037  RH  076%=      5-min Rain = 0
KANS 170615Z 21008KT 08/04 A2998 RMK A01 T00780037  RH  076%=      5-min Rain = 0
KANS 170620Z 22008KT 08/04 A2998 RMK A01 T00780037  RH  076%=      5-min Rain = 0
KANS 170625Z 22007KT 08/04 A2998 RMK A01 T00780037  RH  076%=      5-min Rain = 0
KANS 170630Z 23007KT 08/04 A2998 RMK A01 T00770037  RH  077%=      5-min Rain = 0
KANS 170635Z 23008KT 08/04 A2998 RMK A01 T00750036  RH  077%=      5-min Rain = 0
KANS 170640Z 23008KT 07/04 A2998 RMK A01 T00740036  RH  078%=      5-min Rain = 0
KANS 170645Z 22008KT 07/04 A2998 RMK A01 T00740036  RH  078%=      5-min Rain = 0
KANS 170650Z 22007KT 07/04 A2998 RMK A01 T00730036  RH  078%=      5-min Rain = 0
KANS 170655Z 22007KT 07/04 A2998 RMK A01 T00720036  RH  079%=      5-min Rain = 0
KANS 170700Z 23007KT 07/04 A2998 RMK A01 T00710035  RH  079%=      5-min Rain = 0
KANS 170705Z 22007KT 07/04 A2998 RMK A01 T00690035  RH  080%=      5-min Rain = 0
KANS 170710Z 21007KT 07/04 A2998 RMK A01 T00680035  RH  080%=      5-min Rain = 0
KANS 170715Z 22006KT 07/04 A2998 RMK A01 T00670035  RH  081%=      5-min Rain = 0
KANS 170720Z 22006KT 07/03 A2998 RMK A01 T00660034  RH  081%=      5-min Rain = 0
KANS 170725Z 22007KT 07/03 A2998 RMK A01 T00650034  RH  081%=      5-min Rain = 0
KANS 170730Z 22007KT 07/03 A2998 RMK A01 T00650034  RH  082%=      5-min Rain = 0
KANS 170735Z 23007KT 07/03 A2998 RMK A01 T00650034  RH  082%=      5-min Rain = 0
KANS 170740Z 23007KT 07/03 A2998 RMK A01 T00650034  RH  082%=      5-min Rain = 0
KANS 170745Z 23008KT 06/03 A2998 RMK A01 T00640033  RH  082%=      5-min Rain = 0
KANS 170750Z 23008KT 06/03 A2998 RMK A01 T00640033  RH  082%=      5-min Rain = 0
KANS 170755Z 23009KT 06/03 A2998 RMK A01 T00640033  RH  082%=      5-min Rain = 0
KANS 170800Z 23009KT 06/03 A2998 RMK A01 T00640033  RH  082%=      5-min Rain = 0
KANS 170805Z 23008KT 06/03 A2998 RMK A01 T00640033  RH  081%=      5-min Rain = 0
KANS 170810Z 24008KT 06/03 A2998 RMK A01 T00640033  RH  081%=      5-min Rain = 0
KANS 170815Z 24009KT 06/03 A2998 RMK A01 T00630032  RH  082%=      5-min Rain = 0
KANS 170820Z 23009KT 06/03 A2998 RMK A01 T00630033  RH  082%=      5-min Rain = 0
KANS 170825Z 24008KT 06/03 A2998 RMK A01 T00630033  RH  082%=      5-min Rain = 0
KANS 170830Z 24008KT 06/03 A2997 RMK A01 T00630033  RH  083%=      5-min Rain = 0
KANS 170835Z 24008KT 06/03 A2997 RMK A01 T00630034  RH  083%=      5-min Rain = 0
KANS 170840Z 25007KT 06/03 A2997 RMK A01 T00630034  RH  082%=      5-min Rain = 0
KANS 170845Z 25007KT 06/03 A2997 RMK A01 T00630033  RH  083%=      5-min Rain = 0
KANS 170850Z 25008KT 06/03 A2997 RMK A01 T00630034  RH  083%=      5-min Rain = 0
KANS 170855Z 26009KT 07/04 A2997 RMK A01 T00660035  RH  082%=      5-min Rain = 0
KANS 170900Z 26009KT 07/04 A2997 RMK A01 T00680035  RH  080%=      5-min Rain = 0
KANS 170905Z 25010KT 07/03 A2997 RMK A01 T00690034  RH  080%=      5-min Rain = 0
KANS 170910Z 25011KT 07/04 A2997 RMK A01 T00700035  RH  080%=      5-min Rain = 0
KANS 170915Z 25010KT 07/04 A2997 RMK A01 T00720036  RH  079%=      5-min Rain = 0
KANS 170920Z 26009KT 07/04 A2997 RMK A01 T00730036  RH  078%=      5-min Rain = 0
KANS 170925Z 26009KT 07/03 A2997 RMK A01 T00720034  RH  078%=      5-min Rain = 0
KANS 170930Z 26009KT 07/03 A2997 RMK A01 T00710034  RH  078%=      5-min Rain = 0
KANS 170935Z 26008KT 07/03 A2997 RMK A01 T00700033  RH  079%=      5-min Rain = 0
KANS 170940Z 26009KT 07/03 A2997 RMK A01 T00700034  RH  078%=      5-min Rain = 0
KANS 170945Z 27008KT 07/03 A2997 RMK A01 T00730034  RH  077%=      5-min Rain = 0
KANS 170950Z 27008KT 08/03 A2998 RMK A01 T00750033  RH  076%=      5-min Rain = 0
KANS 170955Z 28009KT 08/03 A2998 RMK A01 T00780033  RH  074%=      5-min Rain = 0
KANS 171000Z 28009KT 08/03 A2998 RMK A01 T00800031  RH  072%=      5-min Rain = 0
KANS 171005Z 27009KT 08/03 A2998 RMK A01 T00820030  RH  071%=      5-min Rain = 0
KANS 171010Z 27009KT 08/03 A2998 RMK A01 T00830030  RH  070%=      5-min Rain = 0
KANS 171015Z 28009KT 08/03 A2998 RMK A01 T00830028  RH  069%=      5-min Rain = 0
KANS 171020Z 29008KT 08/03 A2998 RMK A01 T00830026  RH  068%=      5-min Rain = 0
KANS 171025Z 30009KT 08/02 A2999 RMK A01 T00840024  RH  067%=      5-min Rain = 0
KANS 171030Z 30011KT 08/02 A2998 RMK A01 T00830023  RH  067%=      5-min Rain = 0
KANS 171035Z 30010KT 08/02 A2998 RMK A01 T00820020  RH  066%=      5-min Rain = 0
KANS 171040Z 30011KT 08/02 A2999 RMK A01 T00810018  RH  065%=      5-min Rain = 0
KANS 171045Z 31011KT 08/02 A2999 RMK A01 T00810016  RH  064%=      5-min Rain = 0
KANS 171050Z 31011KT 08/01 A30 RMK A01 T00820014  RH  063%=      5-min Rain = 0
KANS 171055Z 32012KT 08/01 A30 RMK A01 T00790013  RH  064%=      5-min Rain = 0
KANS 171100Z 32013G18KT 08/01 A3001 RMK A01 T00780012  RH  064%=      5-min Rain = 0
KANS 171105Z 34015G21KT 08/01 A3001 RMK A01 T00790009  RH  062%=      5-min Rain = 0
KANS 171110Z 35016G24KT 08/01 A3001 RMK A01 T00800008  RH  061%=      5-min Rain = 0
KANS 171115Z 35016G22KT 08/01 A3002 RMK A01 T00810007  RH  060%=      5-min Rain = 0
KANS 171120Z 35015G21KT 08/01 A3003 RMK A01 T00800007  RH  061%=      5-min Rain = 0
KANS 171125Z 36016G21KT 08/01 A3003 RMK A01 T00800006  RH  060%=      5-min Rain = 0
KANS 171130Z 36016G21KT 08/01 A3003 RMK A01 T00800006  RH  060%=      5-min Rain = 0
KANS 171135Z 36015G21KT 08/01 A3003 RMK A01 T00800005  RH  059%=      5-min Rain = 0
KANS 171140Z 36017KT 08/00 A3004 RMK A01 T00820002  RH  058%=      5-min Rain = 0
KANS 171145Z 36017KT 08/00 A3004 RMK A01 T00830001  RH  057%=      5-min Rain = 0
KANS 171150Z 36018G25KT 08/M00 A3004 RMK A01 T00831001  RH  056%=      5-min Rain = 0
KANS 171155Z 36017G23KT 08/M00 A3004 RMK A01 T00831003  RH  055%=      5-min Rain = 0
KANS 171200Z 36016G21KT 08/M00 A3004 RMK A01 T00831004  RH  055%=      5-min Rain = 0
KANS 171205Z 00015G21KT 08/M01 A3005 RMK A01 T00821005  RH  055%=      5-min Rain = 0
KANS 171210Z 00015G20KT 08/M01 A3005 RMK A01 T00821006  RH  054%=      5-min Rain = 0
KANS 171215Z 00016G21KT 08/M01 A3005 RMK A01 T00831007  RH  054%=      5-min Rain = 0
KANS 171220Z 00015G21KT 08/M01 A3006 RMK A01 T00831007  RH  054%=      5-min Rain = 0
KANS 171225Z 36015G20KT 08/M01 A3006 RMK A01 T00821008  RH  054%=      5-min Rain = 0
KANS 171230Z 00014G20KT 08/M01 A3007 RMK A01 T00801008  RH  055%=      5-min Rain = 0
KANS 171235Z 00014KT 08/M01 A3007 RMK A01 T00781008  RH  055%=      5-min Rain = 0
KANS 171240Z 00013G18KT 08/M01 A3007 RMK A01 T00771008  RH  055%=      5-min Rain = 0
KANS 171245Z 36014G19KT 08/M01 A3008 RMK A01 T00761009  RH  055%=      5-min Rain = 0
KANS 171250Z 36013KT 08/M01 A3008 RMK A01 T00761009  RH  056%=      5-min Rain = 0
KANS 171255Z 00012G17KT 08/M01 A3009 RMK A01 T00751010  RH  056%=      5-min Rain = 0
KANS 171300Z 00012KT 07/M01 A3009 RMK A01 T00741010  RH  056%=      5-min Rain = 0
KANS 171305Z 36012KT 07/M01 A301 RMK A01 T00731010  RH  056%=      5-min Rain = 0
KANS 171310Z 36013G18KT 07/M01 A301 RMK A01 T00731010  RH  056%=      5-min Rain = 0
KANS 171315Z 35015G20KT 07/M01 A3011 RMK A01 T00741010  RH  056%=      5-min Rain = 0
KANS 171320Z 35014KT 07/M01 A3011 RMK A01 T00741010  RH  056%=      5-min Rain = 0
KANS 171325Z 35014G19KT 07/M01 A3011 RMK A01 T00731010  RH  056%=      5-min Rain = 0
KANS 171330Z 35013KT 07/M01 A3012 RMK A01 T00731010  RH  056%=      5-min Rain = 0
KANS 171335Z 35013KT 07/M01 A3012 RMK A01 T00721010  RH  057%=      5-min Rain = 0
KANS 171340Z 36014KT 07/M01 A3012 RMK A01 T00731010  RH  056%=      5-min Rain = 0
KANS 171345Z 35012G17KT 07/M01 A3013 RMK A01 T00741009  RH  056%=      5-min Rain = 0
KANS 171350Z 36012G17KT 08/M01 A3013 RMK A01 T00751009  RH  056%=      5-min Rain = 0
KANS 171355Z 36012KT 08/M01 A3014 RMK A01 T00771008  RH  055%=      5-min Rain = 0
KANS 171400Z 36013G19KT 08/M01 A3014 RMK A01 T00781008  RH  055%=      5-min Rain = 0
KANS 171405Z 36014KT 08/M01 A3014 RMK A01 T00801008  RH  055%=      5-min Rain = 0
KANS 171410Z 36014KT 08/M01 A3014 RMK A01 T00811007  RH  054%=      5-min Rain = 0
KANS 171415Z 36015G21KT 08/M01 A3015 RMK A01 T00831007  RH  054%=      5-min Rain = 0
KANS 171420Z 36015G21KT 09/M01 A3015 RMK A01 T00851007  RH  053%=      5-min Rain = 0
KANS 171425Z 36017G22KT 09/M01 A3015 RMK A01 T00871007  RH  052%=      5-min Rain = 0
KANS 171430Z 36014G21KT 09/M01 A3016 RMK A01 T00891006  RH  052%=      5-min Rain = 0
KANS 171435Z 36016G23KT 09/M01 A3016 RMK A01 T00911005  RH  052%=      5-min Rain = 0
KANS 171440Z 00015G22KT 09/M01 A3016 RMK A01 T00921005  RH  051%=      5-min Rain = 0
KANS 171445Z 00016G22KT 09/M00 A3016 RMK A01 T00941004  RH  051%=      5-min Rain = 0
KANS 171450Z 36015G23KT 10/M00 A3016 RMK A01 T00951004  RH  051%=      5-min Rain = 0
KANS 171455Z 36017KT 10/M00 A3017 RMK A01 T00971004  RH  050%=      5-min Rain = 0
KANS 171500Z 00017G25KT 10/M00 A3017 RMK A01 T00981004  RH  050%=      5-min Rain = 0
KANS 171505Z 00017KT 10/M00 A3017 RMK A01 T01011003  RH  049%=      5-min Rain = 0
KANS 171510Z 00015G21KT 10/M00 A3017 RMK A01 T01021002  RH  049%=      5-min Rain = 0
KANS 171515Z 00017G23KT 10/M00 A3017 RMK A01 T01021003  RH  049%=      5-min Rain = 0
KANS 171520Z 01018KT 10/M00 A3017 RMK A01 T01031002  RH  049%=      5-min Rain = 0
KANS 171525Z 00018G25KT 10/M00 A3018 RMK A01 T01041002  RH  048%=      5-min Rain = 0
KANS 171530Z 01019G25KT 11/M00 A3018 RMK A01 T01051002  RH  048%=      5-min Rain = 0
KANS 171535Z 00017G24KT 11/M00 A3018 RMK A01 T01081001  RH  047%=      5-min Rain = 0
KANS 171540Z 01020KT 11/M00 A3018 RMK A01 T01081001  RH  047%=      5-min Rain = 0
KANS 171545Z 01018G25KT 11/00 A3018 RMK A01 T011000-0  RH  047%=      5-min Rain = 0
KANS 171550Z 01018KT 11/00 A3018 RMK A01 T011100-0  RH  047%=      5-min Rain = 0
KANS 171555Z 01018G23KT 11/00 A3018 RMK A01 T01120000  RH  046%=      5-min Rain = 0
KANS 171600Z 00017G23KT 11/00 A3018 RMK A01 T01140001  RH  046%=      5-min Rain = 0
KANS 171605Z 01018G28KT 12/00 A3018 RMK A01 T01170000  RH  045%=      5-min Rain = 0
KANS 171610Z 01018G24KT 12/00 A3018 RMK A01 T01180000  RH  045%=      5-min Rain = 0
KANS 171615Z 00018G24KT 12/00 A3018 RMK A01 T01200001  RH  044%=      5-min Rain = 0
KANS 171620Z 00017G26KT 12/00 A3019 RMK A01 T01220001  RH  044%=      5-min Rain = 0
KANS 171625Z 00019G24KT 12/00 A3019 RMK A01 T01220000  RH  044%=      5-min Rain = 0
KANS 171630Z 01017G24KT 12/00 A3019 RMK A01 T01240001  RH  043%=      5-min Rain = 0
KANS 171635Z 01017G24KT 13/00 A3019 RMK A01 T01260001  RH  043%=      5-min Rain = 0
KANS 171640Z 01019G25KT 13/00 A3019 RMK A01 T01270001  RH  042%=      5-min Rain = 0
KANS 171645Z 01016G22KT 13/00 A3019 RMK A01 T01280002  RH  042%=      5-min Rain = 0
KANS 171650Z 01017G22KT 13/00 A3019 RMK A01 T01270002  RH  042%=      5-min Rain = 0
KANS 171655Z 01017G23KT 13/00 A302 RMK A01 T01280002  RH  042%=      5-min Rain = 0
KANS 171700Z 00015G20KT 13/00 A302 RMK A01 T01290003  RH  042%=      5-min Rain = 0
KANS 171705Z 01013G19KT 13/00 A302 RMK A01 T01320003  RH  042%=      5-min Rain = 0
KANS 171710Z 01014G19KT 13/00 A302 RMK A01 T01340003  RH  041%=      5-min Rain = 0
KANS 171715Z 01014G20KT 13/00 A302 RMK A01 T01340003  RH  041%=      5-min Rain = 0
KANS 171720Z 01015G20KT 14/00 A302 RMK A01 T01360003  RH  041%=      5-min Rain = 0
KANS 171725Z 01012G18KT 14/00 A302 RMK A01 T01360004  RH  041%=      5-min Rain = 0
KANS 171730Z 36012G17KT 14/00 A302 RMK A01 T01410004  RH  040%=      5-min Rain = 0
KANS 171735Z 00013KT 14/00 A3019 RMK A01 T01410004  RH  040%=      5-min Rain = 0
KANS 171740Z 01014G19KT 14/00 A3019 RMK A01 T01410003  RH  039%=      5-min Rain = 0
KANS 171745Z 01011KT 14/00 A3019 RMK A01 T01400004  RH  040%=      5-min Rain = 0
KANS 171750Z 01013G19KT 15/00 A3019 RMK A01 T01450004  RH  038%=      5-min Rain = 0
KANS 171755Z 01011KT 15/00 A302 RMK A01 T01450003  RH  038%=      5-min Rain = 0
KANS 171800Z 02010KT 15/00 A302 RMK A01 T01480003  RH  038%=      5-min Rain = 0
KANS 171805Z 01006G11KT 15/00 A302 RMK A01 T01480003  RH  037%=      5-min Rain = 0
KANS 171810Z 00008G14KT 15/00 A302 RMK A01 T01480004  RH  038%=      5-min Rain = 0
KANS 171815Z 03009G16KT 15/00 A3019 RMK A01 T01510001  RH  036%=      5-min Rain = 0
KANS 171820Z 03010G16KT 15/00 A3019 RMK A01 T015300-0  RH  035%=      5-min Rain = 0
KANS 171825Z 01010G15KT 16/00 A3017 RMK A01 T01560001  RH  035%=      5-min Rain = 0
KANS 171830Z 01011G17KT 16/00 A3017 RMK A01 T01580001  RH  035%=      5-min Rain = 0
KANS 171835Z 02010G15KT 16/M00 A3017 RMK A01 T01591001  RH  034%=      5-min Rain = 0
KANS 171840Z 36011KT 16/00 A3017 RMK A01 T01590001  RH  034%=      5-min Rain = 0
KANS 171845Z 01011G16KT 16/00 A3016 RMK A01 T01580000  RH  034%=      5-min Rain = 0
KANS 171850Z 01011G16KT 16/M00 A3016 RMK A01 T01611001  RH  034%=      5-min Rain = 0
KANS 171855Z 02010KT 16/00 A3016 RMK A01 T01610000  RH  034%=      5-min Rain = 0
KANS 171900Z 01009KT 16/00 A3016 RMK A01 T016300-0  RH  033%=      5-min Rain = 0
KANS 171905Z 02009KT 16/M00 A3015 RMK A01 T01621002  RH  033%=      5-min Rain = 0
KANS 171910Z 04009KT 16/M00 A3015 RMK A01 T01621002  RH  033%=      5-min Rain = 0
KANS 171915Z 01008G16KT 16/M00 A3015 RMK A01 T01631001  RH  033%=      5-min Rain = 0
KANS 171920Z 02008G14KT 17/M00 A3014 RMK A01 T01671001  RH  032%=      5-min Rain = 0
KANS 171925Z 00010KT 17/M00 A3014 RMK A01 T01671001  RH  032%=      5-min Rain = 0
KANS 171930Z 01010KT 17/M00 A3014 RMK A01 T01671003  RH  032%=      5-min Rain = 0
KANS 171935Z 02009G14KT 17/M00 A3014 RMK A01 T01671003  RH  032%=      5-min Rain = 0
KANS 171940Z 01009G16KT 17/M00 A3013 RMK A01 T01681002  RH  032%=      5-min Rain = 0
KANS 171945Z 01008G13KT 17/M00 A3013 RMK A01 T01691001  RH  032%=      5-min Rain = 0
KANS 171950Z 02008G13KT 17/M00 A3013 RMK A01 T01681002  RH  032%=      5-min Rain = 0
KANS 171955Z 03009G14KT 17/M00 A3013 RMK A01 T01711003  RH  031%=      5-min Rain = 0
KANS 172000Z 03010KT 17/M01 A3013 RMK A01 T01691005  RH  031%=      5-min Rain = 0
KANS 172005Z 02008KT 17/M00 A3012 RMK A01 T01711003  RH  031%=      5-min Rain = 0
KANS 172010Z 02010G15KT 17/M01 A3012 RMK A01 T01701005  RH  031%=      5-min Rain = 0
KANS 172015Z 00007KT 17/M01 A3012 RMK A01 T01681005  RH  031%=      5-min Rain = 0
KANS 172020Z 02006KT 17/M00 A3012 RMK A01 T01701004  RH  031%=      5-min Rain = 0
KANS 172025Z 00008KT 17/M00 A3012 RMK A01 T01701004  RH  031%=      5-min Rain = 0
KANS 172030Z 02009KT 17/M01 A3011 RMK A01 T01691005  RH  031%=      5-min Rain = 0
KANS 172035Z 03008KT 17/M01 A3012 RMK A01 T01721005  RH  030%=      5-min Rain = 0
KANS 172040Z 03008G13KT 17/M01 A3012 RMK A01 T01741006  RH  030%=      5-min Rain = 0
KANS 172045Z 02008G13KT 18/M00 A3011 RMK A01 T01751004  RH  030%=      5-min Rain = 0
KANS 172050Z 34008KT 17/M00 A3011 RMK A01 T01731004  RH  030%=      5-min Rain = 0
KANS 172055Z 36009KT 17/M00 A3012 RMK A01 T01691004  RH  031%=      5-min Rain = 0
KANS 172100Z 00004G9KT 17/M01 A3012 RMK A01 T01681005  RH  031%=      5-min Rain = 0
KANS 172105Z 01008KT 17/M00 A3012 RMK A01 T01711004  RH  031%=      5-min Rain = 0
KANS 172110Z 01008KT 17/M00 A3012 RMK A01 T01741004  RH  030%=      5-min Rain = 0
KANS 172115Z 01007KT 18/M00 A3011 RMK A01 T01761004  RH  030%=      5-min Rain = 0
KANS 172120Z 01010KT 18/M01 A3011 RMK A01 T01781005  RH  029%=      5-min Rain = 0
KANS 172125Z 01006G11KT 18/M00 A3011 RMK A01 T01771004  RH  030%=      5-min Rain = 0
KANS 172130Z 36008KT 18/M00 A3011 RMK A01 T01781004  RH  029%=      5-min Rain = 0
KANS 172135Z 02009KT 18/M00 A3011 RMK A01 T01791003  RH  029%=      5-min Rain = 0
KANS 172140Z 02008KT 18/M00 A3011 RMK A01 T01771004  RH  030%=      5-min Rain = 0
KANS 172145Z 01007KT 17/M00 A3011 RMK A01 T01741004  RH  030%=      5-min Rain = 0
KANS 172150Z 01008KT 17/M01 A3011 RMK A01 T01711005  RH  031%=      5-min Rain = 0
KANS 172155Z 02008KT 17/M01 A3011 RMK A01 T01701007  RH  030%=      5-min Rain = 0
KANS 172200Z 00009KT 17/M01 A3011 RMK A01 T01691005  RH  031%=      5-min Rain = 0
KANS 172205Z 01008KT 17/M00 A3011 RMK A01 T01701004  RH  031%=      5-min Rain = 0
KANS 172210Z 02008KT 17/M00 A3011 RMK A01 T01711004  RH  031%=      5-min Rain = 0
KANS 172215Z 01007KT 17/M01 A3011 RMK A01 T01681005  RH  031%=      5-min Rain = 0
KANS 172220Z 02008KT 17/M01 A301 RMK A01 T01661005  RH  031%=      5-min Rain = 0
KANS 172225Z 02007KT 17/M01 A301 RMK A01 T01651006  RH  032%=      5-min Rain = 0
KANS 172230Z 02007KT 17/M00 A301 RMK A01 T01651004  RH  032%=      5-min Rain = 0
KANS 172235Z 01008KT 17/M01 A301 RMK A01 T01671005  RH  031%=      5-min Rain = 0
KANS 172240Z 02006KT 17/M00 A301 RMK A01 T01661004  RH  032%=      5-min Rain = 0
KANS 172245Z 03005KT 16/M00 A301 RMK A01 T01631004  RH  032%=      5-min Rain = 0
KANS 172250Z 02006KT 16/M00 A301 RMK A01 T01611004  RH  033%=      5-min Rain = 0
KANS 172255Z 03005KT 16/M00 A301 RMK A01 T01591003  RH  033%=      5-min Rain = 0
KANS 172300Z 03005KT 16/M00 A301 RMK A01 T01581004  RH  034%=      5-min Rain = 0
KANS 172305Z 02004KT 16/M00 A301 RMK A01 T01561004  RH  034%=      5-min Rain = 0
KANS 172310Z 03003KT 16/M00 A301 RMK A01 T01561003  RH  034%=      5-min Rain = 0
KANS 172315Z 03004KT 16/M00 A301 RMK A01 T01561002  RH  034%=      5-min Rain = 0
KANS 172320Z 02004KT 16/M00 A301 RMK A01 T01571002  RH  034%=      5-min Rain = 0
KANS 172325Z 03003KT 16/M00 A301 RMK A01 T01561002  RH  035%=      5-min Rain = 0
KANS 172330Z 02002KT 16/M00 A301 RMK A01 T01551003  RH  035%=      5-min Rain = 0
KANS 172335Z 03002KT 15/M00 A301 RMK A01 T01521003  RH  035%=      5-min Rain = 0
KANS 172340Z 03002KT 15/M00 A301 RMK A01 T01491002  RH  036%=      5-min Rain = 0
KANS 172345Z 02002KT 15/00 A301 RMK A01 T014500-0  RH  037%=      5-min Rain = 0
KANS 172350Z 02003KT 14/00 A301 RMK A01 T01420000  RH  038%=      5-min Rain = 0
KANS 172355Z 03005KT 14/00 A301 RMK A01 T01380001  RH  040%=      5-min Rain = 0
KANS 180000Z 04005KT 13/00 A301 RMK A01 T01330002  RH  041%=      5-min Rain = 0
KANS 180005Z 04004KT 13/00 A301 RMK A01 T01300002  RH  042%=      5-min Rain = 0
KANS 180010Z 04004KT 13/00 A301 RMK A01 T01280002  RH  042%=      5-min Rain = 0
KANS 180015Z 05004KT 13/00 A301 RMK A01 T01270002  RH  043%=      5-min Rain = 0
KANS 180020Z 04003KT 13/00 A301 RMK A01 T01270002  RH  043%=      5-min Rain = 0
KANS 180025Z 03003KT 13/00 A301 RMK A01 T01250003  RH  044%=      5-min Rain = 0
KANS 180030Z 03002KT 12/00 A3011 RMK A01 T01220004  RH  045%=      5-min Rain = 0
KANS 180035Z 04002KT 12/00 A3011 RMK A01 T01180004  RH  046%=      5-min Rain = 0
KANS 180040Z 03001KT 12/00 A3011 RMK A01 T01150004  RH  047%=      5-min Rain = 0
KANS 180045Z 03000KT 11/00 A3012 RMK A01 T01120003  RH  047%=      5-min Rain = 0
KANS 180050Z 23000KT 10/00 A3012 RMK A01 T01030001  RH  050%=      5-min Rain = 0
KANS 180055Z 22001KT 10/00 A3012 RMK A01 T00980004  RH  053%=      5-min Rain = 0
KANS 180100Z 22002KT 10/01 A3013 RMK A01 T00970014  RH  057%=      5-min Rain = 0
KANS 180105Z 23002KT 09/02 A3013 RMK A01 T00940019  RH  060%=      5-min Rain = 0
KANS 180110Z 23004KT 09/02 A3013 RMK A01 T00940022  RH  062%=      5-min Rain = 0
KANS 180115Z 24005KT 09/02 A3013 RMK A01 T00910021  RH  062%=      5-min Rain = 0
KANS 180120Z 25004KT 09/02 A3013 RMK A01 T00910016  RH  060%=      5-min Rain = 0
KANS 180125Z 23004KT 09/01 A3013 RMK A01 T00920012  RH  058%=      5-min Rain = 0
KANS 180130Z 23004KT 09/01 A3013 RMK A01 T00900012  RH  059%=      5-min Rain = 0
KANS 180135Z 24003KT 09/01 A3013 RMK A01 T00880013  RH  060%=      5-min Rain = 0
KANS 180140Z 24003KT 09/01 A3013 RMK A01 T00890012  RH  059%=      5-min Rain = 0
KANS 180145Z 24004KT 09/01 A3013 RMK A01 T00890009  RH  058%=      5-min Rain = 0
KANS 180150Z 24005KT 09/01 A3014 RMK A01 T00890008  RH  057%=      5-min Rain = 0
KANS 180155Z 24005KT 09/01 A3013 RMK A01 T00880007  RH  057%=      5-min Rain = 0
KANS 180200Z 24004KT 08/01 A3013 RMK A01 T00840007  RH  059%=      5-min Rain = 0
KANS 180205Z 23004KT 08/01 A3013 RMK A01 T00830009  RH  061%=      5-min Rain = 0
KANS 180210Z 23003KT 08/01 A3013 RMK A01 T00820012  RH  062%=      5-min Rain = 0
KANS 180215Z 22004KT 08/01 A3013 RMK A01 T00820014  RH  063%=      5-min Rain = 0
KANS 180220Z 22004KT 08/01 A3014 RMK A01 T00820013  RH  062%=      5-min Rain = 0
KANS 180225Z 22004KT 08/01 A3014 RMK A01 T00800013  RH  063%=      5-min Rain = 0
KANS 180230Z 23005KT 08/01 A3014 RMK A01 T00790013  RH  064%=      5-min Rain = 0
KANS 180235Z 23005KT 08/01 A3014 RMK A01 T00780014  RH  064%=      5-min Rain = 0
KANS 180240Z 23005KT 08/01 A3014 RMK A01 T00770014  RH  065%=      5-min Rain = 0
KANS 180245Z 23005KT 08/01 A3014 RMK A01 T00760014  RH  065%=      5-min Rain = 0
KANS 180250Z 23004KT 08/02 A3014 RMK A01 T00770016  RH  066%=      5-min Rain = 0
KANS 180255Z 23004KT 08/02 A3014 RMK A01 T00780017  RH  066%=      5-min Rain = 0
KANS 180300Z 23004KT 08/01 A3014 RMK A01 T00800011  RH  063%=      5-min Rain = 0
KANS 180305Z 22004KT 08/01 A3014 RMK A01 T00810008  RH  061%=      5-min Rain = 0
KANS 180310Z 22003KT 08/01 A3014 RMK A01 T00820007  RH  060%=      5-min Rain = 0
KANS 180315Z 22003KT 08/01 A3013 RMK A01 T00830006  RH  059%=      5-min Rain = 0
KANS 180320Z 21004KT 08/01 A3013 RMK A01 T00840006  RH  059%=      5-min Rain = 0
KANS 180325Z 22004KT 08/01 A3013 RMK A01 T00830006  RH  059%=      5-min Rain = 0
KANS 180330Z 22003KT 08/01 A3013 RMK A01 T00820006  RH  059%=      5-min Rain = 0
KANS 180335Z 21003KT 08/01 A3013 RMK A01 T00810007  RH  060%=      5-min Rain = 0
KANS 180340Z 20003KT 08/01 A3013 RMK A01 T00810007  RH  060%=      5-min Rain = 0
KANS 180345Z 20003KT 08/01 A3013 RMK A01 T00810005  RH  059%=      5-min Rain = 0
KANS 180350Z 21002KT 08/00 A3014 RMK A01 T00780004  RH  060%=      5-min Rain = 0
KANS 180355Z 22003KT 08/01 A3014 RMK A01 T00780005  RH  061%=      5-min Rain = 0
KANS 180400Z 20003KT 08/00 A3013 RMK A01 T00780004  RH  060%=      5-min Rain = 0
KANS 180405Z 19003KT 08/01 A3013 RMK A01 T00790005  RH  060%=      5-min Rain = 0
KANS 180410Z 20003KT 08/00 A3013 RMK A01 T00800003  RH  059%=      5-min Rain = 0
KANS 180415Z 21003KT 07/00 A3012 RMK A01 T00740001  RH  061%=      5-min Rain = 0
KANS 180420Z 21004KT 07/00 A3012 RMK A01 T00690003  RH  064%=      5-min Rain = 0
KANS 180425Z 21004KT 07/01 A3012 RMK A01 T00660009  RH  068%=      5-min Rain = 0
KANS 180430Z 21004KT 07/01 A3012 RMK A01 T00650013  RH  070%=      5-min Rain = 0
KANS 180435Z 21004KT 07/01 A3012 RMK A01 T00660014  RH  070%=      5-min Rain = 0
KANS 180440Z 20005KT 07/01 A3012 RMK A01 T00650014  RH  071%=      5-min Rain = 0
KANS 180445Z 21004KT 07/01 A3012 RMK A01 T00660014  RH  070%=      5-min Rain = 0
KANS 180450Z 21004KT 07/02 A3012 RMK A01 T00680016  RH  070%=      5-min Rain = 0
KANS 180455Z 21004KT 07/01 A3012 RMK A01 T00700014  RH  068%=      5-min Rain = 0
KANS 180500Z 21004KT 07/01 A3012 RMK A01 T00710013  RH  067%=      5-min Rain = 0
KANS 180505Z 21004KT 07/01 A3012 RMK A01 T00700011  RH  067%=      5-min Rain = 0
KANS 180510Z 21004KT 07/01 A3012 RMK A01 T00700010  RH  066%=      5-min Rain = 0
KANS 180515Z 21004KT 07/01 A3011 RMK A01 T00700008  RH  065%=      5-min Rain = 0
KANS 180520Z 21004KT 07/01 A3011 RMK A01 T00700009  RH  066%=      5-min Rain = 0
KANS 180525Z 22004KT 07/01 A3011 RMK A01 T00700009  RH  066%=      5-min Rain = 0
KANS 180530Z 23006KT 07/01 A3011 RMK A01 T00690009  RH  066%=      5-min Rain = 0
KANS 180535Z 23006KT 07/01 A3011 RMK A01 T00660008  RH  067%=      5-min Rain = 0
KANS 180540Z 23005KT 06/01 A3011 RMK A01 T00640008  RH  068%=      5-min Rain = 0
KANS 180545Z 23005KT 06/01 A3011 RMK A01 T00640008  RH  068%=      5-min Rain = 0
KANS 180550Z 23005KT 07/01 A3011 RMK A01 T00650009  RH  068%=      5-min Rain = 0
KANS 180555Z 23005KT 07/01 A3011 RMK A01 T00650009  RH  068%=      5-min Rain = 0

Page generated in 0.0093 seconds.